Time;durP1;ratioP1;P1;durP2;ratioP2;P2;SDS_P1;SDS_P2;PMS_P1;PMS_P2;Temp;Humidity;BMP_temperature;BMP_pressure;BME280_temperature;BME280_humidity;BME280_pressure;Samples;Min_cycle;Max_cycle;Signal;HPM_P1;HPM_P2
2023/08/02 00:00:29;;;;;;;4.70;2.40;;;;;;;25.74;48.64;98104.09;5053169;28;20037;-73
2023/08/02 00:02:55;;;;;;;5.72;2.53;;;;;;;25.73;49.02;98107.84;5040664;28;20403;-73
2023/08/02 00:05:20;;;;;;;4.80;2.20;;;;;;;25.68;48.68;98105.06;5040742;28;20443;-73
2023/08/02 00:07:46;;;;;;;5.10;2.42;;;;;;;25.66;48.88;98109.78;5074174;28;20079;-73
2023/08/02 00:10:11;;;;;;;5.65;2.30;;;;;;;25.67;49.39;98106.09;5057132;28;20068;-73
2023/08/02 00:12:36;;;;;;;3.05;2.30;;;;;;;25.59;49.26;98103.75;5075181;28;20078;-73
2023/08/02 00:15:02;;;;;;;3.65;2.40;;;;;;;25.55;49.46;98099.91;5056633;28;20072;-73
2023/08/02 00:17:28;;;;;;;3.33;2.25;;;;;;;25.53;49.31;98105.47;5040645;28;20044;-74
2023/08/02 00:19:53;;;;;;;3.25;2.38;;;;;;;25.51;49.54;98106.75;5057202;28;20537;-73
2023/08/02 00:22:19;;;;;;;3.97;2.45;;;;;;;25.44;49.51;98105.00;5073795;28;20090;-74
2023/08/02 00:24:44;;;;;;;4.35;2.35;;;;;;;25.42;49.49;98100.94;5040244;28;20040;-74
2023/08/02 00:27:10;;;;;;;3.08;2.28;;;;;;;25.40;49.98;98111.03;5040512;28;20067;-74
2023/08/02 00:29:35;;;;;;;2.92;2.17;;;;;;;25.38;49.65;98111.25;5056957;28;20041;-74
2023/08/02 00:32:00;;;;;;;3.30;2.33;;;;;;;25.34;49.87;98112.75;5040401;28;20028;-74
2023/08/02 00:34:26;;;;;;;3.72;2.67;;;;;;;25.25;49.95;98109.56;5056304;28;20097;-74
2023/08/02 00:36:52;;;;;;;3.30;2.42;;;;;;;25.25;50.31;98106.91;5073917;28;20025;-72
2023/08/02 00:39:18;;;;;;;4.97;2.20;;;;;;;25.24;50.28;98110.59;5056833;28;20047;-71
2023/08/02 00:41:44;;;;;;;3.17;2.40;;;;;;;25.21;50.49;98102.25;5072987;28;20487;-72
2023/08/02 00:44:09;;;;;;;2.88;2.40;;;;;;;25.18;50.61;98105.38;5073534;28;20105;-72
2023/08/02 00:46:35;;;;;;;3.55;2.50;;;;;;;25.11;50.65;98092.09;5073209;28;20024;-72
2023/08/02 00:49:00;;;;;;;7.43;2.42;;;;;;;25.09;51.02;98091.50;5056507;28;20033;-72
2023/08/02 00:51:30;;;;;;;2.92;2.17;;;;;;;25.03;51.32;98095.06;5073255;28;20025;-73
2023/08/02 00:53:55;;;;;;;4.35;2.50;;;;;;;24.93;51.26;98085.75;5057428;28;20036;-72
2023/08/02 00:56:21;;;;;;;5.70;2.50;;;;;;;24.93;51.32;98087.63;5039826;28;20062;-72
2023/08/02 00:58:46;;;;;;;6.28;2.58;;;;;;;24.95;51.19;98098.06;5040015;28;20036;-72
2023/08/02 01:01:12;;;;;;;3.45;2.70;;;;;;;24.88;51.35;98098.97;5073343;28;20033;-72
2023/08/02 01:03:41;;;;;;;3.22;2.70;;;;;;;24.83;51.36;98087.34;5056332;28;20475;-71
2023/08/02 01:06:26;;;;;;;4.60;2.50;;;;;;;24.79;51.68;98094.97;5056028;28;20519;-72
2023/08/02 01:09:07;;;;;;;5.78;2.60;;;;;;;24.76;51.45;98089.28;5056019;28;20028;-72
2023/08/02 01:11:56;;;;;;;3.60;2.80;;;;;;;24.72;51.75;98092.38;5058256;28;20029;-72
2023/08/02 01:14:21;;;;;;;5.68;2.95;;;;;;;24.70;52.11;98101.66;5072297;28;20029;-73
2023/08/02 01:16:48;;;;;;;3.83;2.63;;;;;;;24.62;52.16;98096.63;5039451;28;20074;-73
2023/08/02 01:19:21;;;;;;;2.90;2.33;;;;;;;24.60;52.16;98102.19;5073068;28;20063;-72
2023/08/02 01:21:46;;;;;;;2.97;2.33;;;;;;;24.49;52.51;98093.03;5072833;28;20480;-72
2023/08/02 01:24:12;;;;;;;4.47;2.67;;;;;;;24.48;52.73;98102.09;5056006;28;20059;-73
2023/08/02 01:26:40;;;;;;;3.90;2.55;;;;;;;24.42;52.57;98102.97;5056370;28;20032;-72
2023/08/02 01:29:06;;;;;;;4.32;2.70;;;;;;;24.42;52.37;98096.84;5055696;28;20028;-72
2023/08/02 01:31:32;;;;;;;4.05;2.60;;;;;;;24.40;52.77;98102.41;5056535;28;20025;-72
2023/08/02 01:33:57;;;;;;;2.50;2.28;;;;;;;24.39;52.78;98101.56;5056340;28;20399;-72
2023/08/02 01:36:23;;;;;;;3.83;2.70;;;;;;;24.35;52.75;98096.88;5055957;28;20384;-82
2023/08/02 01:38:50;;;;;;;8.32;3.05;;;;;;;24.27;52.85;98091.84;5039189;28;20039;-77
2023/08/02 01:41:16;;;;;;;6.20;2.60;;;;;;;24.26;52.91;98093.72;5055981;28;20028;-77
2023/08/02 01:43:41;;;;;;;2.97;2.58;;;;;;;24.22;52.99;98092.50;5055009;28;20510;-78
2023/08/02 01:46:07;;;;;;;5.40;2.88;;;;;;;24.18;53.15;98094.00;5056346;28;20089;-78
2023/08/02 01:48:32;;;;;;;3.25;2.60;;;;;;;24.12;53.15;98095.69;5039177;28;20047;-78
2023/08/02 01:50:58;;;;;;;4.78;2.60;;;;;;;24.07;53.33;98089.38;5055417;28;20044;-79
2023/08/02 01:53:23;;;;;;;3.78;2.90;;;;;;;24.05;53.41;98104.78;5072286;28;20028;-77
2023/08/02 01:55:49;;;;;;;5.53;2.67;;;;;;;24.02;53.36;98106.88;5072320;28;20032;-77
2023/08/02 01:58:14;;;;;;;3.97;2.90;;;;;;;24.00;53.39;98100.94;5055056;28;20041;-77
2023/08/02 02:00:41;;;;;;;6.40;2.72;;;;;;;23.95;53.51;98097.28;5046802;28;20576;-78
2023/08/02 02:03:06;;;;;;;5.85;3.08;;;;;;;23.90;53.79;98097.16;5067210;28;20474;-78
2023/08/02 02:05:32;;;;;;;5.50;3.13;;;;;;;23.91;53.84;98107.59;5091388;28;20052;-79
2023/08/02 02:07:57;;;;;;;5.28;2.92;;;;;;;23.89;53.74;98104.31;5092398;28;20028;-78
2023/08/02 02:10:23;;;;;;;3.65;2.83;;;;;;;23.91;53.96;98098.75;5088671;28;20036;-78
2023/08/02 02:12:48;;;;;;;5.30;2.88;;;;;;;23.90;54.02;98097.94;5078883;28;20036;-78
2023/08/02 02:15:14;;;;;;;3.92;2.95;;;;;;;23.84;54.08;98102.28;5063583;28;20027;-77
2023/08/02 02:17:40;;;;;;;4.13;3.00;;;;;;;23.86;54.07;98102.06;5053562;28;20446;-78
2023/08/02 02:20:06;;;;;;;5.22;3.10;;;;;;;23.83;54.05;98107.81;5062209;28;20029;-76
2023/08/02 02:22:31;;;;;;;6.05;2.92;;;;;;;23.81;54.46;98110.69;5064153;28;20024;-79
2023/08/02 02:24:57;;;;;;;5.82;2.92;;;;;;;23.79;54.67;98106.63;5048598;28;20048;-77
2023/08/02 02:27:22;;;;;;;4.93;3.08;;;;;;;23.76;54.53;98107.88;5054744;28;20075;-77
2023/08/02 02:29:48;;;;;;;4.20;3.15;;;;;;;23.76;54.43;98104.41;5055450;28;20078;-77
2023/08/02 02:32:13;;;;;;;4.60;3.15;;;;;;;23.74;54.53;98112.59;5054574;28;20044;-77
2023/08/02 02:34:39;;;;;;;5.20;3.08;;;;;;;23.74;54.41;98117.13;5073062;28;20036;-77
2023/08/02 02:37:05;;;;;;;5.88;3.13;;;;;;;23.72;54.42;98105.84;5071446;28;20055;-78
2023/08/02 02:39:30;;;;;;;4.38;3.10;;;;;;;23.72;54.63;98106.69;5071369;28;20028;-78
2023/08/02 02:41:56;;;;;;;4.40;3.25;;;;;;;23.73;54.59;98102.16;5072865;28;20033;-78
2023/08/02 02:44:21;;;;;;;6.75;3.30;;;;;;;23.72;54.77;98104.03;5055045;28;20158;-78
2023/08/02 02:46:47;;;;;;;5.10;3.22;;;;;;;23.69;54.87;98101.78;5054816;28;20479;-79
2023/08/02 02:49:12;;;;;;;4.40;3.20;;;;;;;23.71;54.72;98105.03;5038174;28;20193;-77
2023/08/02 02:51:38;;;;;;;5.13;3.47;;;;;;;23.74;54.65;98107.28;5054486;28;20024;-77
2023/08/02 02:54:03;;;;;;;8.30;3.00;;;;;;;23.72;54.84;98100.53;5071527;28;20446;-77
2023/08/02 02:56:29;;;;;;;4.28;3.53;;;;;;;23.73;54.99;98110.16;5071452;28;20082;-77
2023/08/02 02:58:54;;;;;;;4.40;3.40;;;;;;;23.73;54.96;98112.81;5071111;28;20028;-77
2023/08/02 03:01:21;;;;;;;4.05;3.50;;;;;;;23.71;54.85;98110.38;5071566;28;20124;-77
2023/08/02 03:03:46;;;;;;;7.57;3.50;;;;;;;23.73;55.01;98113.63;5054610;28;20040;-77
2023/08/02 03:06:12;;;;;;;4.20;3.20;;;;;;;23.77;54.74;98114.84;5071180;28;20070;-77
2023/08/02 03:08:37;;;;;;;8.85;3.20;;;;;;;23.75;54.77;98116.06;5077843;28;20044;-78
2023/08/02 03:11:03;;;;;;;3.80;3.30;;;;;;;23.71;54.81;98122.91;5083699;28;20032;-78
2023/08/02 03:13:29;;;;;;;5.13;3.70;;;;;;;23.68;54.83;98124.13;5037925;28;20136;-78
2023/08/02 03:15:54;;;;;;;3.88;3.40;;;;;;;23.66;54.83;98118.22;5062594;28;20028;-78
2023/08/02 03:18:19;;;;;;;6.10;3.40;;;;;;;23.70;54.67;98110.59;5092524;28;20035;-78
2023/08/02 03:20:45;;;;;;;5.80;3.63;;;;;;;23.84;54.50;98122.81;5091114;28;20427;-78
2023/08/02 03:23:11;;;;;;;5.45;3.60;;;;;;;23.97;54.17;98125.38;5092470;28;20048;-78
2023/08/02 03:25:36;;;;;;;4.10;3.50;;;;;;;24.10;53.85;98127.09;5091153;28;20036;-77
2023/08/02 03:28:02;;;;;;;5.75;3.70;;;;;;;24.01;53.68;98129.22;5091441;28;20109;-77
2023/08/02 03:30:27;;;;;;;4.45;3.38;;;;;;;24.01;53.87;98128.41;5037785;28;20411;-79
2023/08/02 03:32:53;;;;;;;6.90;3.58;;;;;;;23.98;54.22;98126.19;5070504;28;20139;-75
2023/08/02 03:35:18;;;;;;;5.72;3.67;;;;;;;24.02;53.87;98122.84;5077293;28;20043;-76
2023/08/02 03:37:44;;;;;;;4.78;3.40;;;;;;;24.18;53.43;98116.16;5093546;28;20130;-76
2023/08/02 03:40:10;;;;;;;4.45;3.65;;;;;;;24.50;52.71;98121.34;5058343;28;20039;-76
2023/08/02 03:42:35;;;;;;;7.13;3.70;;;;;;;24.59;52.29;98118.41;5057815;28;20130;-76
2023/08/02 03:45:02;;;;;;;6.25;3.55;;;;;;;24.56;52.50;98122.31;5074291;28;20040;-76
2023/08/02 03:47:28;;;;;;;5.43;4.07;;;;;;;24.87;51.43;98126.69;5074937;28;20024;-75
2023/08/02 03:49:53;;;;;;;4.22;3.58;;;;;;;25.13;50.82;98130.06;5075874;28;20480;-75
2023/08/02 03:52:19;;;;;;;4.10;3.55;;;;;;;25.78;49.34;98132.03;5058045;28;20112;-75
2023/08/02 03:54:44;;;;;;;6.53;3.50;;;;;;;26.24;48.65;98134.97;5058267;28;20060;-75
2023/08/02 03:57:10;;;;;;;5.75;3.45;;;;;;;26.79;46.93;98122.22;5075488;28;20539;-75
2023/08/02 03:59:35;;;;;;;9.32;3.22;;;;;;;27.46;45.49;98131.56;5074512;28;20027;-75
2023/08/02 04:02:01;;;;;;;5.70;2.97;;;;;;;27.74;44.58;98120.75;5057373;28;20047;-75
2023/08/02 04:04:26;;;;;;;6.53;3.40;;;;;;;28.38;43.37;98124.94;5075574;28;20080;-75
2023/08/02 04:06:52;;;;;;;5.38;3.28;;;;;;;29.00;42.33;98123.88;5076109;28;20040;-75
2023/08/02 04:09:17;;;;;;;5.40;3.05;;;;;;;29.23;41.55;98130.84;5091319;28;20025;-75
2023/08/02 04:11:43;;;;;;;7.13;3.50;;;;;;;29.04;41.61;98118.78;5074319;28;20035;-75
2023/08/02 04:14:08;;;;;;;4.47;3.17;;;;;;;29.72;40.28;98118.38;5074358;28;20468;-75
2023/08/02 04:16:34;;;;;;;5.53;3.13;;;;;;;30.45;39.19;98112.44;5056831;28;20044;-77
2023/08/02 04:18:59;;;;;;;8.75;3.20;;;;;;;31.08;38.02;98114.31;5088456;28;20027;-75
2023/08/02 04:21:25;;;;;;;4.63;2.42;;;;;;;31.30;37.55;98111.38;5095657;28;20028;-71
2023/08/02 04:23:50;;;;;;;15.20;2.97;;;;;;;32.15;36.32;98115.44;5077016;28;20093;-75
2023/08/02 04:26:16;;;;;;;9.98;2.78;;;;;;;33.21;33.71;98111.81;5093805;28;20044;-77
2023/08/02 04:28:41;;;;;;;10.00;3.00;;;;;;;34.23;32.02;98118.31;5077350;28;20452;-77
2023/08/02 04:31:07;;;;;;;12.52;2.90;;;;;;;35.19;30.42;98114.69;5094378;28;20032;-77
2023/08/02 04:33:32;;;;;;;8.07;2.60;;;;;;;36.00;29.05;98111.75;5095749;28;20028;-76
2023/08/02 04:35:59;;;;;;;4.05;2.40;;;;;;;36.52;27.91;98119.78;5095547;28;20039;-76
2023/08/02 04:38:25;;;;;;;5.57;2.60;;;;;;;37.24;26.50;98117.47;5093948;28;20042;-76
2023/08/02 04:40:50;;;;;;;3.20;2.22;;;;;;;37.36;26.68;98120.44;5077111;28;20024;-77
2023/08/02 04:43:16;;;;;;;5.43;2.40;;;;;;;37.74;26.09;98119.28;5095237;28;20035;-76
2023/08/02 04:45:42;;;;;;;4.25;2.55;;;;;;;38.41;25.29;98121.06;5094125;28;20032;-73
2023/08/02 04:48:07;;;;;;;5.00;2.15;;;;;;;38.90;24.73;98121.03;5092631;28;20471;-73
2023/08/02 04:50:36;;;;;;;9.73;2.33;;;;;;;38.67;25.45;98120.38;5076923;28;20024;-74
2023/08/02 04:53:01;;;;;;;6.57;2.20;;;;;;;38.67;25.35;98117.66;5110728;28;20491;-75
2023/08/02 04:55:27;;;;;;;7.82;2.67;;;;;;;38.50;25.53;98113.72;5094891;28;20039;-74
2023/08/02 04:57:52;;;;;;;9.07;2.33;;;;;;;39.74;23.98;98113.50;5094956;28;20028;-74
2023/08/02 05:00:18;;;;;;;4.55;1.90;;;;;;;40.27;23.75;98116.88;5093467;28;20036;-74
2023/08/02 05:02:44;;;;;;;7.60;1.92;;;;;;;40.33;23.60;98120.25;5094924;28;20023;-74
2023/08/02 05:05:10;;;;;;;4.53;2.28;;;;;;;40.99;23.22;98124.38;5093653;28;20070;-74
2023/08/02 05:07:36;;;;;;;5.15;1.83;;;;;;;41.46;22.31;98129.66;5093859;28;20483;-75
2023/08/02 05:10:08;;;;;;;8.15;2.30;;;;;;;41.89;21.66;98125.72;5081195;28;20028;-76
2023/08/02 05:12:34;;;;;;;4.20;1.88;;;;;;;42.66;20.88;98138.81;5059700;28;20501;-76
2023/08/02 05:15:00;;;;;;;5.72;2.00;;;;;;;43.18;20.40;98128.22;5076221;28;20127;-74
2023/08/02 05:17:29;;;;;;;9.77;1.80;;;;;;;43.86;19.69;98129.31;5076183;28;20029;-75
2023/08/02 05:19:55;;;;;;;6.95;1.95;;;;;;;44.45;19.15;98125.66;5072625;28;20054;-84
2023/08/02 05:22:20;;;;;;;8.93;2.00;;;;;;;44.65;19.19;98131.25;5075843;28;20505;-75
2023/08/02 05:24:46;;;;;;;8.70;2.10;;;;;;;44.34;18.98;98130.13;5093911;28;20579;-76
2023/08/02 05:27:11;;;;;;;8.13;2.03;;;;;;;43.81;19.49;98129.56;5093111;28;20032;-76
2023/08/02 05:29:37;;;;;;;5.67;2.03;;;;;;;43.81;19.59;98132.31;5080503;28;20428;-73
2023/08/02 05:32:03;;;;;;;6.70;1.87;;;;;;;44.47;18.73;98135.50;5093223;28;20491;-72
2023/08/02 05:34:28;;;;;;;3.50;1.80;;;;;;;43.96;19.47;98136.22;5093108;28;20494;-73
2023/08/02 05:36:54;;;;;;;4.57;1.93;;;;;;;43.01;20.01;98143.00;5093141;28;20020;-70
2023/08/02 05:39:19;;;;;;;21.87;2.80;;;;;;;43.31;20.32;98145.44;5092995;28;20162;-80
2023/08/02 05:41:45;;;;;;;23.70;2.93;;;;;;;43.12;20.37;98140.59;5093243;28;20122;-77
2023/08/02 05:44:10;;;;;;;15.97;2.40;;;;;;;43.69;18.86;98141.41;5059986;28;20348;-79
2023/08/02 05:46:36;;;;;;;27.73;2.60;;;;;;;43.40;19.85;98131.56;5071099;28;20032;-77
2023/08/02 05:49:01;;;;;;;12.80;2.47;;;;;;;43.90;19.47;98133.75;5081381;28;20016;-72
2023/08/02 05:51:27;;;;;;;12.77;2.40;;;;;;;44.46;18.60;98131.97;5072610;28;20024;-74
2023/08/02 05:53:52;;;;;;;6.97;2.00;;;;;;;44.45;18.83;98128.41;5055019;28;20075;-72
2023/08/02 05:56:18;;;;;;;13.57;2.10;;;;;;;44.88;18.57;98119.53;5072720;28;20028;-77
2023/08/02 05:58:43;;;;;;;4.63;1.93;;;;;;;45.50;17.37;98128.72;5055521;28;20036;-76
2023/08/02 06:01:09;;;;;;;6.00;2.10;;;;;;;45.92;17.08;98135.41;5055704;28;20041;-74
2023/08/02 06:03:34;;;;;;;5.87;1.90;;;;;;;45.42;17.24;98129.78;5079502;28;20039;-75
2023/08/02 06:06:00;;;;;;;5.43;1.80;;;;;;;44.54;18.31;98116.44;5070333;28;20167;-76
2023/08/02 06:08:25;;;;;;;7.67;2.03;;;;;;;44.31;18.15;98125.31;5073808;28;20124;-75
2023/08/02 06:10:51;;;;;;;6.03;2.13;;;;;;;44.21;18.48;98125.88;5094444;28;20046;-80
2023/08/02 06:13:17;;;;;;;7.17;2.07;;;;;;;44.78;18.13;98138.22;5092676;28;20028;-77
2023/08/02 06:15:42;;;;;;;5.25;1.90;;;;;;;45.06;17.42;98133.75;5075837;28;20060;-76
2023/08/02 06:18:08;;;;;;;8.37;2.20;;;;;;;44.97;17.80;98131.16;5059076;28;20032;-76
2023/08/02 06:20:33;;;;;;;5.27;2.30;;;;;;;45.18;17.72;98124.53;5075546;28;20019;-75
2023/08/02 06:22:59;;;;;;;8.87;1.93;;;;;;;45.25;17.88;98135.69;5093628;28;20470;-76
2023/08/02 06:25:24;;;;;;;7.10;2.17;;;;;;;44.77;17.94;98128.38;5093838;28;20540;-75
2023/08/02 06:27:50;;;;;;;6.87;2.00;;;;;;;44.25;18.14;98130.31;5094009;28;20094;-75
2023/08/02 06:30:15;;;;;;;5.67;2.00;;;;;;;44.35;18.14;98125.44;5075819;28;20093;-77
2023/08/02 06:32:41;;;;;;;4.10;1.80;;;;;;;44.80;18.18;98126.84;5075504;28;20142;-77
2023/08/02 06:35:07;;;;;;;4.13;2.20;;;;;;;45.23;17.41;98122.28;5076150;28;20016;-76
2023/08/02 06:37:32;;;;;;;5.78;2.33;;;;;;;44.95;17.91;98119.72;5093414;28;20503;-76
2023/08/02 06:39:58;;;;;;;4.10;2.10;;;;;;;44.86;17.53;98110.88;5093032;28;20054;-76
2023/08/02 06:42:23;;;;;;;7.83;2.13;;;;;;;43.69;18.94;98122.16;5091738;28;20487;-77
2023/08/02 06:44:49;;;;;;;7.43;2.40;;;;;;;42.54;19.92;98116.03;5058582;28;20228;-77
2023/08/02 06:47:14;;;;;;;5.10;2.70;;;;;;;41.94;20.52;98121.94;5074282;28;20035;-78
2023/08/02 06:49:40;;;;;;;4.13;2.60;;;;;;;41.72;20.86;98123.13;5091774;28;20036;-75
2023/08/02 06:52:05;;;;;;;4.60;2.30;;;;;;;40.89;21.68;98130.28;5074419;28;20093;-75
2023/08/02 06:54:31;;;;;;;6.88;2.20;;;;;;;41.12;21.24;98130.72;5073532;28;20130;-77
2023/08/02 06:56:56;;;;;;;6.65;2.30;;;;;;;41.09;21.62;98129.47;5092774;28;20468;-75
2023/08/02 06:59:23;;;;;;;5.03;2.42;;;;;;;40.78;21.47;98124.34;5074554;28;20528;-75
2023/08/02 07:01:48;;;;;;;9.50;2.40;;;;;;;40.98;21.26;98129.06;5074955;28;20028;-76
2023/08/02 07:04:14;;;;;;;6.18;2.50;;;;;;;41.45;21.34;98122.59;5091623;28;20059;-76
2023/08/02 07:06:39;;;;;;;3.63;2.20;;;;;;;41.12;21.61;98117.84;5074806;28;20032;-76
2023/08/02 07:09:04;;;;;;;11.70;2.37;;;;;;;41.08;21.67;98113.38;5074560;28;20043;-76
2023/08/02 07:11:30;;;;;;;4.75;2.38;;;;;;;40.85;22.19;98113.72;5074089;28;20036;-75
2023/08/02 07:13:55;;;;;;;3.53;2.38;;;;;;;40.04;23.04;98116.31;5091754;28;20119;-76
2023/08/02 07:16:21;;;;;;;4.93;2.70;;;;;;;39.37;23.50;98112.25;5057772;28;20020;-76
2023/08/02 07:18:46;;;;;;;4.63;2.60;;;;;;;38.86;24.49;98115.44;5074706;28;20047;-75
2023/08/02 07:21:12;;;;;;;6.22;2.38;;;;;;;38.42;24.65;98121.88;5091240;28;20380;-76
2023/08/02 07:23:37;;;;;;;9.27;2.58;;;;;;;38.48;25.04;98123.34;5074716;28;20055;-75
2023/08/02 07:26:04;;;;;;;4.35;2.60;;;;;;;38.63;24.49;98116.66;5091130;28;20036;-76
2023/08/02 07:28:30;;;;;;;4.88;2.70;;;;;;;38.33;25.26;98119.94;5074656;28;20028;-75
2023/08/02 07:31:12;;;;;;;3.78;2.50;;;;;;;38.05;25.52;98115.75;5074310;28;20043;-78
2023/08/02 07:33:37;;;;;;;4.40;2.53;;;;;;;37.97;25.75;98125.50;5074467;28;20032;-78
2023/08/02 07:36:03;;;;;;;9.48;2.70;;;;;;;37.83;25.61;98117.44;5091154;28;20093;-75
2023/08/02 07:38:29;;;;;;;3.92;2.58;;;;;;;37.73;25.74;98115.75;5074643;28;20024;-76
2023/08/02 07:40:54;;;;;;;7.78;2.80;;;;;;;37.59;26.12;98123.16;5092156;28;20087;-75
2023/08/02 07:43:20;;;;;;;5.18;2.60;;;;;;;37.87;26.16;98117.59;5074617;28;20035;-75
2023/08/02 07:45:45;;;;;;;7.78;2.80;;;;;;;38.49;25.40;98114.84;5090832;28;20031;-75
2023/08/02 07:48:11;;;;;;;7.80;2.97;;;;;;;38.55;24.82;98124.47;5090594;28;20109;-76
2023/08/02 07:50:36;;;;;;;5.63;2.78;;;;;;;38.22;25.51;98125.97;5074456;28;20028;-75
2023/08/02 07:53:02;;;;;;;5.85;2.60;;;;;;;38.47;25.06;98129.91;5091994;28;20483;-76
2023/08/02 07:55:27;;;;;;;5.18;2.67;;;;;;;38.71;24.59;98124.06;5074202;28;20471;-75
2023/08/02 07:57:53;;;;;;;8.90;3.10;;;;;;;39.41;23.83;98122.22;5074626;28;20032;-76
2023/08/02 08:00:18;;;;;;;6.60;2.75;;;;;;;40.11;23.39;98111.16;5090703;28;20036;-77
2023/08/02 08:02:44;;;;;;;8.30;2.92;;;;;;;40.48;22.45;98122.44;5073742;28;20115;-77
2023/08/02 08:05:10;;;;;;;9.13;2.90;;;;;;;40.93;22.27;98120.25;5092651;28;20044;-76
2023/08/02 08:07:35;;;;;;;5.82;2.60;;;;;;;41.34;22.08;98113.19;5074153;28;20061;-76
2023/08/02 08:10:00;;;;;;;8.82;2.70;;;;;;;41.66;21.77;98116.28;5074032;28;20028;-76
2023/08/02 08:12:26;;;;;;;4.65;2.60;;;;;;;41.79;21.79;98122.59;5074042;28;20040;-75
2023/08/02 08:14:51;;;;;;;6.50;2.60;;;;;;;42.03;21.74;98117.16;5092101;28;20035;-77
2023/08/02 08:17:17;;;;;;;5.82;2.45;;;;;;;42.29;21.49;98114.13;5074017;28;20029;-76
2023/08/02 08:19:46;;;;;;;3.63;2.50;;;;;;;42.34;21.03;98120.53;5073650;28;20062;-76
2023/08/02 08:22:12;;;;;;;7.53;2.58;;;;;;;42.37;21.01;98117.06;5074765;28;20506;-75
2023/08/02 08:24:37;;;;;;;6.80;3.05;;;;;;;42.52;21.09;98121.09;5077860;28;20032;-76
2023/08/02 08:27:03;;;;;;;6.47;2.70;;;;;;;42.70;20.80;98121.66;5094363;28;20062;-76
2023/08/02 08:29:29;;;;;;;9.97;3.17;;;;;;;42.78;20.60;98107.00;5077534;28;20040;-76
2023/08/02 08:31:54;;;;;;;6.73;2.70;;;;;;;42.84;20.45;98108.34;5077948;28;20028;-76
2023/08/02 08:34:20;;;;;;;5.47;3.13;;;;;;;42.73;19.96;98107.25;5077837;28;20071;-76
2023/08/02 08:36:46;;;;;;;7.07;3.20;;;;;;;42.74;20.67;98117.88;5077653;28;20446;-76
2023/08/02 08:39:11;;;;;;;6.73;2.90;;;;;;;42.75;20.71;98107.72;5077075;28;20086;-77
2023/08/02 08:41:37;;;;;;;8.10;3.30;;;;;;;42.73;20.53;98097.09;5077158;28;20486;-75
2023/08/02 08:44:02;;;;;;;9.90;3.23;;;;;;;42.59;20.79;98100.19;5094029;28;20107;-76
2023/08/02 08:46:31;;;;;;;13.20;3.83;;;;;;;42.50;20.87;98107.72;5077330;28;20022;-76
2023/08/02 08:48:58;;;;;;;6.10;3.20;;;;;;;42.20;20.97;98105.22;5077392;28;20032;-75
2023/08/02 08:51:24;;;;;;;;;;;;;;;42.23;20.86;98106.47;5077129;28;20027;-75
2023/08/02 08:53:50;;;;;;;8.73;3.80;;;;;;;42.21;21.02;98111.47;5093996;28;19915;-75
2023/08/02 08:56:15;;;;;;;13.27;3.93;;;;;;;42.11;21.21;98096.25;5093816;28;20034;-75
2023/08/02 08:58:41;;;;;;;7.87;3.90;;;;;;;42.23;21.27;98098.25;5077268;28;20028;-76
2023/08/02 09:01:06;;;;;;;13.33;4.30;;;;;;;42.28;21.40;98089.78;5093620;28;20099;-79
2023/08/02 09:03:32;;;;;;;11.83;4.20;;;;;;;42.30;21.51;98091.06;5076657;28;20442;-76
2023/08/02 09:06:03;;;;;;;12.23;3.70;;;;;;;42.30;21.69;98093.78;5059874;28;20056;-76
2023/08/02 09:08:29;;;;;;;10.88;4.20;;;;;;;42.23;21.66;98096.28;5060481;28;20262;-77
2023/08/02 09:10:54;;;;;;;17.93;4.10;;;;;;;41.93;21.88;98087.47;5093609;28;20399;-76
2023/08/02 09:13:21;;;;;;;10.73;3.97;;;;;;;41.62;21.62;98086.00;5076675;28;20032;-76
2023/08/02 09:15:49;;;;;;;4.63;3.53;;;;;;;41.54;21.71;98093.16;5093543;28;20028;-77
2023/08/02 09:18:15;;;;;;;6.88;3.97;;;;;;;41.26;22.09;98083.91;5076569;28;20062;-76
2023/08/02 09:20:51;;;;;;;14.80;4.70;;;;;;;41.25;21.85;98091.34;5094687;28;20032;-76
2023/08/02 09:23:16;;;;;;;6.85;4.20;;;;;;;41.29;22.40;98088.75;5093200;28;20040;-76
2023/08/02 09:25:42;;;;;;;12.90;4.50;;;;;;;41.27;22.17;98086.31;5093265;28;20407;-76
2023/08/02 09:28:10;;;;;;;9.25;4.38;;;;;;;41.15;22.34;98080.78;5076589;28;20028;-78
2023/08/02 09:30:36;;;;;;;11.07;4.28;;;;;;;40.96;22.20;98084.00;5059547;28;20031;-76
2023/08/02 09:33:06;;;;;;;7.65;4.53;;;;;;;40.84;22.33;98080.03;5076099;28;20031;-76
2023/08/02 09:35:48;;;;;;;12.55;4.72;;;;;;;40.56;23.01;98077.03;5059064;28;20088;-76
2023/08/02 09:38:14;;;;;;;11.55;4.70;;;;;;;40.53;23.05;98076.88;5092831;28;20020;-77
2023/08/02 09:40:40;;;;;;;11.55;4.80;;;;;;;40.39;23.80;98074.38;5076053;28;20027;-76
2023/08/02 09:43:08;;;;;;;12.13;5.07;;;;;;;40.37;23.34;98074.69;5093321;28;20039;-75
2023/08/02 09:45:34;;;;;;;14.90;4.70;;;;;;;40.13;23.54;98073.38;5076047;28;20028;-76
2023/08/02 09:48:00;;;;;;;7.75;4.28;;;;;;;40.18;23.87;98064.19;5075708;28;20542;-79
2023/08/02 09:50:27;;;;;;;7.50;3.83;;;;;;;40.10;23.53;98063.09;5076129;28;20110;-76
2023/08/02 09:52:52;;;;;;;8.65;4.25;;;;;;;40.06;24.06;98062.16;5076269;28;20121;-76
2023/08/02 09:55:17;;;;;;;5.35;3.70;;;;;;;40.08;23.84;98054.44;5075883;28;20028;-75
2023/08/02 09:57:44;;;;;;;11.55;3.95;;;;;;;39.88;23.67;98049.66;5092959;28;20056;-77
2023/08/02 10:00:10;;;;;;;8.63;4.15;;;;;;;39.86;24.14;98050.00;5059102;28;20118;-75
2023/08/02 10:02:36;;;;;;;8.15;4.72;;;;;;;39.86;24.29;98046.47;5076150;28;20562;-76
2023/08/02 10:05:02;;;;;;;8.82;4.13;;;;;;;39.54;24.39;98045.94;5075571;28;20052;-77
2023/08/02 10:07:51;;;;;;;8.82;4.18;;;;;;;39.51;24.42;98052.81;5075531;28;20036;-75
2023/08/02 10:10:25;;;;;;;5.97;3.70;;;;;;;39.21;24.54;98043.72;5092784;28;20032;-76
2023/08/02 10:13:13;;;;;;;9.35;4.03;;;;;;;39.13;24.93;98039.06;5092636;28;20027;-75
2023/08/02 10:15:40;;;;;;;5.75;3.80;;;;;;;39.08;25.07;98042.78;5075617;28;20075;-77
2023/08/02 10:18:06;;;;;;;9.82;3.92;;;;;;;38.86;24.94;98030.88;5075655;28;20044;-75
2023/08/02 10:20:31;;;;;;;8.38;3.78;;;;;;;38.76;25.17;98027.66;5092364;28;20043;-77
2023/08/02 10:22:57;;;;;;;6.95;4.00;;;;;;;38.67;25.32;98025.72;5075196;28;20024;-76
2023/08/02 10:25:22;;;;;;;6.85;3.65;;;;;;;38.60;25.38;98025.34;5058722;28;20085;-76
2023/08/02 10:27:48;;;;;;;10.20;4.10;;;;;;;38.52;25.45;98021.53;5075092;28;20056;-76
2023/08/02 10:30:13;;;;;;;6.63;3.60;;;;;;;38.44;25.80;98021.50;5075208;28;20020;-80
2023/08/02 10:32:39;;;;;;;7.15;3.83;;;;;;;38.29;25.90;98015.38;5091940;28;20506;-74
2023/08/02 10:35:05;;;;;;;7.47;3.70;;;;;;;38.23;25.77;98010.41;5076408;28;20035;-77
2023/08/02 10:37:50;;;;;;;6.90;3.95;;;;;;;38.05;26.33;98004.88;5094090;28;20036;-76
2023/08/02 10:40:15;;;;;;;8.30;3.90;;;;;;;37.99;26.51;98006.16;5091685;28;20470;-76
2023/08/02 10:43:04;;;;;;;8.80;3.60;;;;;;;37.82;26.35;98007.69;5093125;28;20057;-76
2023/08/02 10:45:30;;;;;;;8.18;4.00;;;;;;;37.64;26.72;97997.81;5091297;28;20063;-76
2023/08/02 10:48:25;;;;;;;5.28;3.70;;;;;;;37.53;26.58;98001.91;5057334;28;20072;-77
2023/08/02 10:50:51;;;;;;;4.65;3.67;;;;;;;37.40;27.18;97992.72;5074955;28;20047;-76
2023/08/02 10:53:16;;;;;;;5.60;3.65;;;;;;;37.34;26.92;97996.69;5057935;28;20032;-75
2023/08/02 10:56:17;;;;;;;8.50;4.00;;;;;;;37.30;27.13;97999.22;5074304;28;20387;-75
2023/08/02 10:58:49;;;;;;;4.18;3.78;;;;;;;37.28;26.78;97991.38;5030458;28;20041;-75
2023/08/02 11:01:15;;;;;;;8.63;4.10;;;;;;;37.14;27.01;97990.63;5013904;28;20033;-75
2023/08/02 11:03:40;;;;;;;8.02;3.90;;;;;;;37.16;27.17;97982.94;4997631;28;20150;-76
2023/08/02 11:06:06;;;;;;;6.63;3.92;;;;;;;36.98;27.27;97983.97;4997414;28;20072;-77
2023/08/02 11:08:46;;;;;;;6.28;4.18;;;;;;;36.91;27.10;97981.66;4997235;28;20060;-77
2023/08/02 11:11:12;;;;;;;8.88;4.30;;;;;;;36.76;27.46;97975.47;4997408;28;20157;-75
2023/08/02 11:13:39;;;;;;;11.40;4.35;;;;;;;36.65;27.62;97978.72;5013379;28;20130;-75
2023/08/02 11:16:06;;;;;;;7.60;4.40;;;;;;;36.57;27.71;97981.03;4997864;28;20072;-76
2023/08/02 11:18:32;;;;;;;8.97;3.90;;;;;;;36.55;27.29;97977.84;4998010;28;20060;-81
2023/08/02 11:21:10;;;;;;;6.90;4.00;;;;;;;36.61;27.73;97972.28;4981300;28;20033;-77
2023/08/02 11:23:36;;;;;;;5.80;4.18;;;;;;;36.53;27.08;97966.47;4997770;28;20033;-77
2023/08/02 11:26:08;;;;;;;5.78;3.67;;;;;;;36.43;27.46;97968.59;4997105;28;20064;-76
2023/08/02 11:28:43;;;;;;;5.70;3.90;;;;;;;36.39;27.15;97966.50;4997347;28;20033;-77